Terminal Aerodrome Forecast
Issued by NWS Paducah, KY

Home | Current Version | Previous Version | Text Only | Print | Product List | Glossary Off
Versions: 1 2 3 4 5 6 7 8 9 10 11 12 13 14

523
FTUS43 KPAH 031731
TAFPAH
TAF
KPAH 031731Z 0318/0418 34006KT P6SM FEW040 SCT060 BKN080
      TEMPO 0318/0319 SCT040 BKN070
     FM040300 28003KT P6SM FEW060 SCT280
     FM041200 24006KT P6SM VCSH BKN090
      TEMPO 0415/0418 -RA FEW013 BKN060=

USA.gov is the U.S. government's official web portal to all federal, state and local government web resources and services.